sensor_id;sensor_type;location;lat;lon;timestamp;P1;durP1;ratioP1;P2;durP2;ratioP2
10090;SDS011;5084;51.386;6.778;2023-03-01T00:00:40;10.60;;;5.10;;
10090;SDS011;5084;51.386;6.778;2023-03-01T00:03:11;6.53;;;5.43;;
10090;SDS011;5084;51.386;6.778;2023-03-01T00:05:43;8.00;;;5.70;;
10090;SDS011;5084;51.386;6.778;2023-03-01T00:08:09;7.97;;;4.87;;
10090;SDS011;5084;51.386;6.778;2023-03-01T00:10:35;6.97;;;5.00;;
10090;SDS011;5084;51.386;6.778;2023-03-01T00:13:01;7.67;;;5.23;;
10090;SDS011;5084;51.386;6.778;2023-03-01T00:15:27;6.90;;;5.70;;
10090;SDS011;5084;51.386;6.778;2023-03-01T00:17:53;7.27;;;5.07;;
10090;SDS011;5084;51.386;6.778;2023-03-01T00:20:19;6.70;;;4.93;;
10090;SDS011;5084;51.386;6.778;2023-03-01T00:22:45;8.50;;;5.67;;
10090;SDS011;5084;51.386;6.778;2023-03-01T00:25:11;8.73;;;6.20;;
10090;SDS011;5084;51.386;6.778;2023-03-01T00:27:37;9.30;;;6.30;;
10090;SDS011;5084;51.386;6.778;2023-03-01T00:30:03;10.20;;;5.00;;
10090;SDS011;5084;51.386;6.778;2023-03-01T00:32:30;8.07;;;5.37;;
10090;SDS011;5084;51.386;6.778;2023-03-01T00:34:56;6.17;;;5.27;;
10090;SDS011;5084;51.386;6.778;2023-03-01T00:37:22;5.50;;;5.00;;
10090;SDS011;5084;51.386;6.778;2023-03-01T00:39:49;8.03;;;4.87;;
10090;SDS011;5084;51.386;6.778;2023-03-01T00:42:15;6.43;;;5.03;;
10090;SDS011;5084;51.386;6.778;2023-03-01T00:44:41;5.33;;;4.77;;
10090;SDS011;5084;51.386;6.778;2023-03-01T00:47:07;7.27;;;5.00;;
10090;SDS011;5084;51.386;6.778;2023-03-01T00:49:34;6.10;;;4.70;;
10090;SDS011;5084;51.386;6.778;2023-03-01T00:52:00;6.87;;;4.80;;
10090;SDS011;5084;51.386;6.778;2023-03-01T00:54:26;6.60;;;5.10;;
10090;SDS011;5084;51.386;6.778;2023-03-01T00:56:53;8.63;;;5.07;;
10090;SDS011;5084;51.386;6.778;2023-03-01T00:59:18;5.73;;;4.87;;
10090;SDS011;5084;51.386;6.778;2023-03-01T01:01:45;7.07;;;4.63;;
10090;SDS011;5084;51.386;6.778;2023-03-01T01:04:11;8.93;;;5.43;;
10090;SDS011;5084;51.386;6.778;2023-03-01T01:06:41;7.43;;;4.67;;
10090;SDS011;5084;51.386;6.778;2023-03-01T01:09:08;5.73;;;5.07;;
10090;SDS011;5084;51.386;6.778;2023-03-01T01:11:34;6.07;;;4.77;;
10090;SDS011;5084;51.386;6.778;2023-03-01T01:14:03;5.30;;;4.80;;
10090;SDS011;5084;51.386;6.778;2023-03-01T01:16:29;6.73;;;4.63;;
10090;SDS011;5084;51.386;6.778;2023-03-01T01:18:56;7.97;;;5.50;;
10090;SDS011;5084;51.386;6.778;2023-03-01T01:21:23;4.10;;;3.77;;
10090;SDS011;5084;51.386;6.778;2023-03-01T01:23:49;6.67;;;5.03;;
10090;SDS011;5084;51.386;6.778;2023-03-01T01:26:17;6.73;;;4.80;;
10090;SDS011;5084;51.386;6.778;2023-03-01T01:28:43;5.97;;;4.90;;
10090;SDS011;5084;51.386;6.778;2023-03-01T01:31:09;5.20;;;4.47;;
10090;SDS011;5084;51.386;6.778;2023-03-01T01:33:35;5.53;;;4.90;;
10090;SDS011;5084;51.386;6.778;2023-03-01T01:36:02;7.47;;;5.63;;
10090;SDS011;5084;51.386;6.778;2023-03-01T01:38:29;8.13;;;4.80;;
10090;SDS011;5084;51.386;6.778;2023-03-01T01:40:55;5.27;;;4.57;;
10090;SDS011;5084;51.386;6.778;2023-03-01T01:43:31;5.17;;;4.67;;
10090;SDS011;5084;51.386;6.778;2023-03-01T01:46:06;7.97;;;4.90;;
10090;SDS011;5084;51.386;6.778;2023-03-01T01:48:42;5.33;;;4.50;;
10090;SDS011;5084;51.386;6.778;2023-03-01T01:51:10;5.73;;;4.67;;
10090;SDS011;5084;51.386;6.778;2023-03-01T01:53:37;5.43;;;4.43;;
10090;SDS011;5084;51.386;6.778;2023-03-01T01:56:04;4.87;;;4.40;;
10090;SDS011;5084;51.386;6.778;2023-03-01T01:58:32;7.53;;;5.27;;
10090;SDS011;5084;51.386;6.778;2023-03-01T02:00:58;5.87;;;4.73;;
10090;SDS011;5084;51.386;6.778;2023-03-01T02:03:26;5.93;;;4.47;;
10090;SDS011;5084;51.386;6.778;2023-03-01T02:06:37;7.40;;;4.90;;
10090;SDS011;5084;51.386;6.778;2023-03-01T02:08:47;6.40;;;4.97;;
10090;SDS011;5084;51.386;6.778;2023-03-01T02:11:14;5.33;;;4.43;;
10090;SDS011;5084;51.386;6.778;2023-03-01T02:13:40;6.90;;;5.33;;
10090;SDS011;5084;51.386;6.778;2023-03-01T02:16:11;5.70;;;4.43;;
10090;SDS011;5084;51.386;6.778;2023-03-01T02:18:39;5.67;;;4.83;;
10090;SDS011;5084;51.386;6.778;2023-03-01T02:23:31;6.53;;;5.30;;
10090;SDS011;5084;51.386;6.778;2023-03-01T02:28:31;5.33;;;4.70;;
10090;SDS011;5084;51.386;6.778;2023-03-01T02:30:58;8.87;;;4.80;;
10090;SDS011;5084;51.386;6.778;2023-03-01T02:33:43;6.30;;;5.13;;
10090;SDS011;5084;51.386;6.778;2023-03-01T02:36:10;6.87;;;4.90;;
10090;SDS011;5084;51.386;6.778;2023-03-01T02:38:38;5.90;;;5.30;;
10090;SDS011;5084;51.386;6.778;2023-03-01T02:41:04;5.37;;;4.83;;
10090;SDS011;5084;51.386;6.778;2023-03-01T02:43:31;5.90;;;4.60;;
10090;SDS011;5084;51.386;6.778;2023-03-01T02:46:02;5.80;;;5.07;;
10090;SDS011;5084;51.386;6.778;2023-03-01T02:48:38;5.63;;;4.87;;
10090;SDS011;5084;51.386;6.778;2023-03-01T02:51:07;7.73;;;5.37;;
10090;SDS011;5084;51.386;6.778;2023-03-01T02:53:41;9.40;;;5.60;;
10090;SDS011;5084;51.386;6.778;2023-03-01T02:56:07;7.13;;;5.40;;
10090;SDS011;5084;51.386;6.778;2023-03-01T02:58:38;6.77;;;5.77;;
10090;SDS011;5084;51.386;6.778;2023-03-01T03:01:10;6.53;;;4.87;;
10090;SDS011;5084;51.386;6.778;2023-03-01T03:03:36;6.73;;;5.53;;
10090;SDS011;5084;51.386;6.778;2023-03-01T03:06:02;5.43;;;4.80;;
10090;SDS011;5084;51.386;6.778;2023-03-01T03:08:28;5.97;;;5.33;;
10090;SDS011;5084;51.386;6.778;2023-03-01T03:10:54;11.77;;;5.63;;
10090;SDS011;5084;51.386;6.778;2023-03-01T03:13:21;9.77;;;5.33;;
10090;SDS011;5084;51.386;6.778;2023-03-01T03:15:47;7.13;;;5.03;;
10090;SDS011;5084;51.386;6.778;2023-03-01T03:18:14;6.07;;;5.00;;
10090;SDS011;5084;51.386;6.778;2023-03-01T03:20:41;5.10;;;4.60;;
10090;SDS011;5084;51.386;6.778;2023-03-01T03:23:08;10.90;;;5.53;;
10090;SDS011;5084;51.386;6.778;2023-03-01T03:25:34;5.63;;;5.13;;
10090;SDS011;5084;51.386;6.778;2023-03-01T03:28:02;5.87;;;5.27;;
10090;SDS011;5084;51.386;6.778;2023-03-01T03:30:34;6.63;;;5.17;;
10090;SDS011;5084;51.386;6.778;2023-03-01T03:33:01;6.60;;;4.80;;
10090;SDS011;5084;51.386;6.778;2023-03-01T03:35:31;6.07;;;5.33;;
10090;SDS011;5084;51.386;6.778;2023-03-01T03:37:58;6.20;;;5.60;;
10090;SDS011;5084;51.386;6.778;2023-03-01T03:40:37;5.20;;;4.70;;
10090;SDS011;5084;51.386;6.778;2023-03-01T03:43:04;6.27;;;5.37;;
10090;SDS011;5084;51.386;6.778;2023-03-01T03:45:31;7.40;;;5.13;;
10090;SDS011;5084;51.386;6.778;2023-03-01T03:47:58;5.40;;;4.90;;
10090;SDS011;5084;51.386;6.778;2023-03-01T03:50:24;6.27;;;5.33;;
10090;SDS011;5084;51.386;6.778;2023-03-01T03:52:51;6.53;;;5.40;;
10090;SDS011;5084;51.386;6.778;2023-03-01T03:55:17;5.47;;;4.97;;
10090;SDS011;5084;51.386;6.778;2023-03-01T03:57:44;7.63;;;5.73;;
10090;SDS011;5084;51.386;6.778;2023-03-01T04:00:16;5.90;;;5.10;;
10090;SDS011;5084;51.386;6.778;2023-03-01T04:02:43;6.20;;;5.60;;
10090;SDS011;5084;51.386;6.778;2023-03-01T04:05:10;9.43;;;5.83;;
10090;SDS011;5084;51.386;6.778;2023-03-01T04:07:36;7.23;;;5.33;;
10090;SDS011;5084;51.386;6.778;2023-03-01T04:10:06;10.37;;;5.77;;
10090;SDS011;5084;51.386;6.778;2023-03-01T04:12:33;8.13;;;5.87;;
10090;SDS011;5084;51.386;6.778;2023-03-01T04:15:00;7.07;;;5.47;;
10090;SDS011;5084;51.386;6.778;2023-03-01T04:17:26;6.20;;;5.60;;
10090;SDS011;5084;51.386;6.778;2023-03-01T04:19:52;6.63;;;5.50;;
10090;SDS011;5084;51.386;6.778;2023-03-01T04:22:18;6.53;;;5.30;;
10090;SDS011;5084;51.386;6.778;2023-03-01T04:24:44;9.27;;;5.60;;
10090;SDS011;5084;51.386;6.778;2023-03-01T04:27:11;6.93;;;5.77;;
10090;SDS011;5084;51.386;6.778;2023-03-01T04:29:37;7.23;;;5.37;;
10090;SDS011;5084;51.386;6.778;2023-03-01T04:32:03;8.13;;;6.23;;
10090;SDS011;5084;51.386;6.778;2023-03-01T04:34:29;6.57;;;5.33;;
10090;SDS011;5084;51.386;6.778;2023-03-01T04:36:55;8.37;;;5.40;;
10090;SDS011;5084;51.386;6.778;2023-03-01T04:39:22;6.43;;;5.30;;
10090;SDS011;5084;51.386;6.778;2023-03-01T04:41:48;6.10;;;5.30;;
10090;SDS011;5084;51.386;6.778;2023-03-01T04:44:14;5.63;;;4.97;;
10090;SDS011;5084;51.386;6.778;2023-03-01T04:46:40;7.00;;;5.50;;
10090;SDS011;5084;51.386;6.778;2023-03-01T04:49:06;8.57;;;5.30;;
10090;SDS011;5084;51.386;6.778;2023-03-01T04:51:32;7.67;;;5.83;;
10090;SDS011;5084;51.386;6.778;2023-03-01T04:53:58;5.60;;;4.97;;
10090;SDS011;5084;51.386;6.778;2023-03-01T04:56:25;7.27;;;4.93;;
10090;SDS011;5084;51.386;6.778;2023-03-01T04:58:52;8.60;;;5.90;;
10090;SDS011;5084;51.386;6.778;2023-03-01T05:01:19;7.17;;;5.93;;
10090;SDS011;5084;51.386;6.778;2023-03-01T05:03:47;8.13;;;6.07;;
10090;SDS011;5084;51.386;6.778;2023-03-01T05:06:13;7.13;;;5.77;;
10090;SDS011;5084;51.386;6.778;2023-03-01T05:08:40;8.03;;;6.17;;
10090;SDS011;5084;51.386;6.778;2023-03-01T05:11:06;7.17;;;5.57;;
10090;SDS011;5084;51.386;6.778;2023-03-01T05:13:33;9.00;;;6.20;;
10090;SDS011;5084;51.386;6.778;2023-03-01T05:16:00;8.37;;;5.73;;
10090;SDS011;5084;51.386;6.778;2023-03-01T05:18:27;9.83;;;6.43;;
10090;SDS011;5084;51.386;6.778;2023-03-01T05:20:53;6.60;;;5.93;;
10090;SDS011;5084;51.386;6.778;2023-03-01T05:23:23;6.00;;;5.40;;
10090;SDS011;5084;51.386;6.778;2023-03-01T05:25:49;7.40;;;5.70;;
10090;SDS011;5084;51.386;6.778;2023-03-01T05:28:17;6.13;;;5.53;;
10090;SDS011;5084;51.386;6.778;2023-03-01T05:30:44;9.30;;;5.97;;
10090;SDS011;5084;51.386;6.778;2023-03-01T05:33:10;10.43;;;6.07;;
10090;SDS011;5084;51.386;6.778;2023-03-01T05:35:40;6.73;;;6.00;;
10090;SDS011;5084;51.386;6.778;2023-03-01T05:38:07;9.67;;;5.83;;
10090;SDS011;5084;51.386;6.778;2023-03-01T05:40:33;9.63;;;6.50;;
10090;SDS011;5084;51.386;6.778;2023-03-01T05:43:00;6.83;;;6.03;;
10090;SDS011;5084;51.386;6.778;2023-03-01T05:45:27;12.00;;;6.03;;
10090;SDS011;5084;51.386;6.778;2023-03-01T05:47:53;7.53;;;6.30;;
10090;SDS011;5084;51.386;6.778;2023-03-01T05:52:47;8.07;;;6.30;;
10090;SDS011;5084;51.386;6.778;2023-03-01T05:55:14;7.40;;;5.93;;
10090;SDS011;5084;51.386;6.778;2023-03-01T05:57:40;8.50;;;6.77;;
10090;SDS011;5084;51.386;6.778;2023-03-01T06:00:07;8.10;;;6.40;;
10090;SDS011;5084;51.386;6.778;2023-03-01T06:02:33;6.47;;;5.77;;
10090;SDS011;5084;51.386;6.778;2023-03-01T06:04:59;8.57;;;6.00;;
10090;SDS011;5084;51.386;6.778;2023-03-01T06:07:25;7.37;;;5.57;;
10090;SDS011;5084;51.386;6.778;2023-03-01T06:09:52;7.17;;;5.83;;
10090;SDS011;5084;51.386;6.778;2023-03-01T06:12:18;6.53;;;5.63;;
10090;SDS011;5084;51.386;6.778;2023-03-01T06:14:45;7.87;;;6.63;;
10090;SDS011;5084;51.386;6.778;2023-03-01T06:17:12;7.27;;;5.97;;
10090;SDS011;5084;51.386;6.778;2023-03-01T06:19:38;7.63;;;6.13;;
10090;SDS011;5084;51.386;6.778;2023-03-01T06:22:05;6.53;;;5.83;;
10090;SDS011;5084;51.386;6.778;2023-03-01T06:24:31;7.47;;;6.67;;
10090;SDS011;5084;51.386;6.778;2023-03-01T06:26:58;6.87;;;6.17;;
10090;SDS011;5084;51.386;6.778;2023-03-01T06:29:24;8.47;;;6.60;;
10090;SDS011;5084;51.386;6.778;2023-03-01T06:31:50;13.63;;;7.50;;
10090;SDS011;5084;51.386;6.778;2023-03-01T06:34:16;7.33;;;6.33;;
10090;SDS011;5084;51.386;6.778;2023-03-01T06:36:42;6.73;;;6.03;;
10090;SDS011;5084;51.386;6.778;2023-03-01T06:39:08;8.90;;;5.90;;
10090;SDS011;5084;51.386;6.778;2023-03-01T06:41:34;7.73;;;6.10;;
10090;SDS011;5084;51.386;6.778;2023-03-01T06:44:00;6.63;;;5.77;;
10090;SDS011;5084;51.386;6.778;2023-03-01T06:46:27;8.73;;;6.07;;
10090;SDS011;5084;51.386;6.778;2023-03-01T06:48:53;6.90;;;6.00;;
10090;SDS011;5084;51.386;6.778;2023-03-01T06:51:19;14.60;;;6.40;;
10090;SDS011;5084;51.386;6.778;2023-03-01T06:53:45;7.00;;;5.47;;
10090;SDS011;5084;51.386;6.778;2023-03-01T06:56:12;7.30;;;5.60;;
10090;SDS011;5084;51.386;6.778;2023-03-01T06:58:38;6.57;;;5.77;;
10090;SDS011;5084;51.386;6.778;2023-03-01T07:01:07;8.87;;;5.73;;
10090;SDS011;5084;51.386;6.778;2023-03-01T07:03:33;6.37;;;5.27;;
10090;SDS011;5084;51.386;6.778;2023-03-01T07:05:59;6.63;;;5.97;;
10090;SDS011;5084;51.386;6.778;2023-03-01T07:08:25;7.60;;;5.50;;
10090;SDS011;5084;51.386;6.778;2023-03-01T07:10:55;7.00;;;5.20;;
10090;SDS011;5084;51.386;6.778;2023-03-01T07:13:21;8.33;;;5.93;;
10090;SDS011;5084;51.386;6.778;2023-03-01T07:15:47;8.20;;;6.03;;
10090;SDS011;5084;51.386;6.778;2023-03-01T07:18:13;7.43;;;5.50;;
10090;SDS011;5084;51.386;6.778;2023-03-01T07:20:39;6.03;;;5.07;;
10090;SDS011;5084;51.386;6.778;2023-03-01T07:23:05;7.20;;;5.10;;
10090;SDS011;5084;51.386;6.778;2023-03-01T07:25:32;5.80;;;5.20;;
10090;SDS011;5084;51.386;6.778;2023-03-01T07:27:58;6.10;;;5.13;;
10090;SDS011;5084;51.386;6.778;2023-03-01T07:30:24;7.40;;;6.23;;
10090;SDS011;5084;51.386;6.778;2023-03-01T07:32:50;6.50;;;5.60;;
10090;SDS011;5084;51.386;6.778;2023-03-01T07:35:17;5.60;;;5.10;;
10090;SDS011;5084;51.386;6.778;2023-03-01T07:37:43;5.57;;;4.73;;
10090;SDS011;5084;51.386;6.778;2023-03-01T07:40:10;6.00;;;5.27;;
10090;SDS011;5084;51.386;6.778;2023-03-01T07:42:36;6.93;;;5.50;;
10090;SDS011;5084;51.386;6.778;2023-03-01T07:45:03;6.97;;;5.57;;
10090;SDS011;5084;51.386;6.778;2023-03-01T07:47:29;8.37;;;5.10;;
10090;SDS011;5084;51.386;6.778;2023-03-01T07:49:55;7.13;;;6.30;;
10090;SDS011;5084;51.386;6.778;2023-03-01T07:52:21;6.67;;;5.37;;
10090;SDS011;5084;51.386;6.778;2023-03-01T07:54:47;7.57;;;4.87;;
10090;SDS011;5084;51.386;6.778;2023-03-01T07:57:13;7.03;;;5.43;;
10090;SDS011;5084;51.386;6.778;2023-03-01T07:59:40;5.87;;;5.20;;
10090;SDS011;5084;51.386;6.778;2023-03-01T08:02:06;7.47;;;5.47;;
10090;SDS011;5084;51.386;6.778;2023-03-01T08:04:32;7.53;;;5.30;;
10090;SDS011;5084;51.386;6.778;2023-03-01T08:06:58;7.30;;;5.30;;
10090;SDS011;5084;51.386;6.778;2023-03-01T08:09:24;8.30;;;5.27;;
10090;SDS011;5084;51.386;6.778;2023-03-01T08:11:50;6.27;;;5.43;;
10090;SDS011;5084;51.386;6.778;2023-03-01T08:14:16;6.83;;;5.80;;
10090;SDS011;5084;51.386;6.778;2023-03-01T08:16:42;6.17;;;5.27;;
10090;SDS011;5084;51.386;6.778;2023-03-01T08:19:10;6.57;;;5.70;;
10090;SDS011;5084;51.386;6.778;2023-03-01T08:21:36;6.00;;;5.37;;
10090;SDS011;5084;51.386;6.778;2023-03-01T08:24:03;8.73;;;5.37;;
10090;SDS011;5084;51.386;6.778;2023-03-01T08:26:29;6.97;;;5.70;;
10090;SDS011;5084;51.386;6.778;2023-03-01T08:28:55;5.93;;;5.13;;
10090;SDS011;5084;51.386;6.778;2023-03-01T08:31:22;7.80;;;5.23;;
10090;SDS011;5084;51.386;6.778;2023-03-01T08:33:49;6.60;;;5.73;;
10090;SDS011;5084;51.386;6.778;2023-03-01T08:36:20;7.70;;;5.53;;
10090;SDS011;5084;51.386;6.778;2023-03-01T08:38:46;6.20;;;5.60;;
10090;SDS011;5084;51.386;6.778;2023-03-01T08:41:12;7.03;;;5.20;;
10090;SDS011;5084;51.386;6.778;2023-03-01T08:43:39;5.93;;;5.33;;
10090;SDS011;5084;51.386;6.778;2023-03-01T08:46:05;7.03;;;5.23;;
10090;SDS011;5084;51.386;6.778;2023-03-01T08:48:31;16.70;;;5.23;;
10090;SDS011;5084;51.386;6.778;2023-03-01T08:51:06;5.93;;;5.20;;
10090;SDS011;5084;51.386;6.778;2023-03-01T08:53:32;9.73;;;5.57;;
10090;SDS011;5084;51.386;6.778;2023-03-01T08:55:59;5.90;;;5.30;;
10090;SDS011;5084;51.386;6.778;2023-03-01T08:58:27;7.10;;;5.70;;
10090;SDS011;5084;51.386;6.778;2023-03-01T09:00:53;6.87;;;5.40;;
10090;SDS011;5084;51.386;6.778;2023-03-01T09:03:21;6.53;;;5.67;;
10090;SDS011;5084;51.386;6.778;2023-03-01T09:05:47;7.03;;;5.63;;
10090;SDS011;5084;51.386;6.778;2023-03-01T09:08:15;5.63;;;5.07;;
10090;SDS011;5084;51.386;6.778;2023-03-01T09:10:41;7.13;;;5.53;;
10090;SDS011;5084;51.386;6.778;2023-03-01T09:13:07;6.90;;;5.50;;
10090;SDS011;5084;51.386;6.778;2023-03-01T09:15:33;7.90;;;5.40;;
10090;SDS011;5084;51.386;6.778;2023-03-01T09:17:59;6.17;;;5.07;;
10090;SDS011;5084;51.386;6.778;2023-03-01T09:20:26;6.10;;;5.23;;
10090;SDS011;5084;51.386;6.778;2023-03-01T09:22:52;8.47;;;5.83;;
10090;SDS011;5084;51.386;6.778;2023-03-01T09:25:18;9.00;;;5.23;;
10090;SDS011;5084;51.386;6.778;2023-03-01T09:27:44;7.93;;;5.33;;
10090;SDS011;5084;51.386;6.778;2023-03-01T09:30:10;6.00;;;5.13;;
10090;SDS011;5084;51.386;6.778;2023-03-01T09:32:36;6.70;;;5.80;;
10090;SDS011;5084;51.386;6.778;2023-03-01T09:35:03;8.50;;;5.80;;
10090;SDS011;5084;51.386;6.778;2023-03-01T09:37:29;6.50;;;5.57;;
10090;SDS011;5084;51.386;6.778;2023-03-01T09:39:56;6.60;;;5.40;;
10090;SDS011;5084;51.386;6.778;2023-03-01T09:42:22;6.70;;;5.17;;
10090;SDS011;5084;51.386;6.778;2023-03-01T09:44:51;6.33;;;5.40;;
10090;SDS011;5084;51.386;6.778;2023-03-01T09:47:22;6.63;;;5.10;;
10090;SDS011;5084;51.386;6.778;2023-03-01T09:50:35;5.87;;;5.27;;
10090;SDS011;5084;51.386;6.778;2023-03-01T09:55:25;6.27;;;5.47;;
10090;SDS011;5084;51.386;6.778;2023-03-01T09:57:55;7.80;;;5.77;;
10090;SDS011;5084;51.386;6.778;2023-03-01T10:00:56;7.83;;;5.37;;
10090;SDS011;5084;51.386;6.778;2023-03-01T10:03:26;7.70;;;5.57;;
10090;SDS011;5084;51.386;6.778;2023-03-01T10:06:15;6.93;;;6.23;;
10090;SDS011;5084;51.386;6.778;2023-03-01T10:08:46;6.47;;;5.00;;
10090;SDS011;5084;51.386;6.778;2023-03-01T10:11:21;7.37;;;5.43;;
10090;SDS011;5084;51.386;6.778;2023-03-01T10:13:50;6.70;;;4.80;;
10090;SDS011;5084;51.386;6.778;2023-03-01T10:16:24;7.33;;;5.50;;
10090;SDS011;5084;51.386;6.778;2023-03-01T10:18:53;8.30;;;6.20;;
10090;SDS011;5084;51.386;6.778;2023-03-01T10:21:21;6.47;;;5.10;;
10090;SDS011;5084;51.386;6.778;2023-03-01T10:23:49;6.87;;;5.50;;
10090;SDS011;5084;51.386;6.778;2023-03-01T10:26:38;8.50;;;5.67;;
10090;SDS011;5084;51.386;6.778;2023-03-01T10:29:07;9.97;;;5.80;;
10090;SDS011;5084;51.386;6.778;2023-03-01T10:31:38;7.83;;;5.40;;
10090;SDS011;5084;51.386;6.778;2023-03-01T10:34:08;7.23;;;5.13;;
10090;SDS011;5084;51.386;6.778;2023-03-01T10:36:35;6.17;;;5.00;;
10090;SDS011;5084;51.386;6.778;2023-03-01T10:39:05;6.00;;;5.30;;
10090;SDS011;5084;51.386;6.778;2023-03-01T10:41:37;6.27;;;5.17;;
10090;SDS011;5084;51.386;6.778;2023-03-01T10:44:09;6.53;;;5.17;;
10090;SDS011;5084;51.386;6.778;2023-03-01T10:46:58;7.27;;;5.47;;
10090;SDS011;5084;51.386;6.778;2023-03-01T10:49:25;6.23;;;5.00;;
10090;SDS011;5084;51.386;6.778;2023-03-01T10:51:51;7.30;;;6.27;;
10090;SDS011;5084;51.386;6.778;2023-03-01T10:54:22;7.50;;;5.13;;
10090;SDS011;5084;51.386;6.778;2023-03-01T10:56:53;6.97;;;5.57;;
10090;SDS011;5084;51.386;6.778;2023-03-01T10:59:27;6.90;;;5.47;;
10090;SDS011;5084;51.386;6.778;2023-03-01T11:04:35;7.47;;;5.40;;
10090;SDS011;5084;51.386;6.778;2023-03-01T11:07:02;5.63;;;4.83;;
10090;SDS011;5084;51.386;6.778;2023-03-01T11:09:32;5.57;;;4.87;;
10090;SDS011;5084;51.386;6.778;2023-03-01T11:12:03;7.03;;;5.23;;
10090;SDS011;5084;51.386;6.778;2023-03-01T11:14:31;6.30;;;5.27;;
10090;SDS011;5084;51.386;6.778;2023-03-01T11:17:03;6.17;;;4.77;;
10090;SDS011;5084;51.386;6.778;2023-03-01T11:19:30;6.17;;;4.97;;
10090;SDS011;5084;51.386;6.778;2023-03-01T11:21:58;6.83;;;5.67;;
10090;SDS011;5084;51.386;6.778;2023-03-01T11:24:41;6.97;;;4.90;;
10090;SDS011;5084;51.386;6.778;2023-03-01T11:29:52;5.77;;;5.00;;
10090;SDS011;5084;51.386;6.778;2023-03-01T11:32:19;4.77;;;4.27;;
10090;SDS011;5084;51.386;6.778;2023-03-01T11:34:57;5.63;;;5.03;;
10090;SDS011;5084;51.386;6.778;2023-03-01T11:40:46;6.50;;;5.33;;
10090;SDS011;5084;51.386;6.778;2023-03-01T11:51:05;5.73;;;4.40;;
10090;SDS011;5084;51.386;6.778;2023-03-01T11:53:40;5.23;;;4.53;;
10090;SDS011;5084;51.386;6.778;2023-03-01T12:01:24;5.07;;;4.17;;
10090;SDS011;5084;51.386;6.778;2023-03-01T12:04:03;5.33;;;4.17;;
10090;SDS011;5084;51.386;6.778;2023-03-01T12:06:55;7.67;;;4.30;;
10090;SDS011;5084;51.386;6.778;2023-03-01T12:12:11;4.63;;;3.90;;
10090;SDS011;5084;51.386;6.778;2023-03-01T12:14:46;4.43;;;4.03;;
10090;SDS011;5084;51.386;6.778;2023-03-01T12:19:55;5.23;;;4.37;;
10090;SDS011;5084;51.386;6.778;2023-03-01T12:22:28;7.47;;;4.60;;
10090;SDS011;5084;51.386;6.778;2023-03-01T12:25:16;7.03;;;5.40;;
10090;SDS011;5084;51.386;6.778;2023-03-01T12:41:07;6.23;;;4.30;;
10090;SDS011;5084;51.386;6.778;2023-03-01T12:46:28;6.43;;;4.30;;
10090;SDS011;5084;51.386;6.778;2023-03-01T12:51:25;5.47;;;4.33;;
10090;SDS011;5084;51.386;6.778;2023-03-01T12:53:53;4.97;;;4.40;;
10090;SDS011;5084;51.386;6.778;2023-03-01T12:56:24;6.30;;;4.13;;
10090;SDS011;5084;51.386;6.778;2023-03-01T12:58:56;4.33;;;3.90;;
10090;SDS011;5084;51.386;6.778;2023-03-01T13:06:47;4.40;;;3.83;;
10090;SDS011;5084;51.386;6.778;2023-03-01T13:09:19;5.00;;;4.33;;
10090;SDS011;5084;51.386;6.778;2023-03-01T13:11:51;4.60;;;4.03;;
10090;SDS011;5084;51.386;6.778;2023-03-01T13:16:46;4.77;;;4.10;;
10090;SDS011;5084;51.386;6.778;2023-03-01T13:19:22;5.20;;;4.43;;
10090;SDS011;5084;51.386;6.778;2023-03-01T13:21:49;5.53;;;4.50;;
10090;SDS011;5084;51.386;6.778;2023-03-01T13:32:23;4.63;;;3.90;;
10090;SDS011;5084;51.386;6.778;2023-03-01T13:34:51;7.00;;;5.00;;
10090;SDS011;5084;51.386;6.778;2023-03-01T13:37:21;4.80;;;4.23;;
10090;SDS011;5084;51.386;6.778;2023-03-01T13:39:47;4.77;;;3.90;;
10090;SDS011;5084;51.386;6.778;2023-03-01T13:44:58;4.83;;;4.30;;
10090;SDS011;5084;51.386;6.778;2023-03-01T13:47:24;5.60;;;4.73;;
10090;SDS011;5084;51.386;6.778;2023-03-01T13:50:24;6.23;;;4.73;;
10090;SDS011;5084;51.386;6.778;2023-03-01T13:57:45;5.10;;;4.43;;
10090;SDS011;5084;51.386;6.778;2023-03-01T14:03:13;5.47;;;4.80;;
10090;SDS011;5084;51.386;6.778;2023-03-01T14:05:40;11.80;;;4.70;;
10090;SDS011;5084;51.386;6.778;2023-03-01T14:08:18;5.37;;;4.87;;
10090;SDS011;5084;51.386;6.778;2023-03-01T14:11:31;6.03;;;4.60;;
10090;SDS011;5084;51.386;6.778;2023-03-01T14:16:31;5.73;;;4.70;;
10090;SDS011;5084;51.386;6.778;2023-03-01T14:19:09;6.37;;;4.53;;
10090;SDS011;5084;51.386;6.778;2023-03-01T14:21:41;6.23;;;4.37;;
10090;SDS011;5084;51.386;6.778;2023-03-01T14:24:15;7.33;;;5.70;;
10090;SDS011;5084;51.386;6.778;2023-03-01T14:26:42;6.90;;;4.67;;
10090;SDS011;5084;51.386;6.778;2023-03-01T14:29:23;5.43;;;4.90;;
10090;SDS011;5084;51.386;6.778;2023-03-01T14:31:49;5.23;;;4.73;;
10090;SDS011;5084;51.386;6.778;2023-03-01T14:34:22;6.00;;;5.30;;
10090;SDS011;5084;51.386;6.778;2023-03-01T14:36:48;7.27;;;4.90;;
10090;SDS011;5084;51.386;6.778;2023-03-01T14:39:19;6.33;;;4.67;;
10090;SDS011;5084;51.386;6.778;2023-03-01T14:41:46;7.37;;;5.30;;
10090;SDS011;5084;51.386;6.778;2023-03-01T14:44:14;6.27;;;4.90;;
10090;SDS011;5084;51.386;6.778;2023-03-01T14:46:42;7.00;;;5.33;;
10090;SDS011;5084;51.386;6.778;2023-03-01T14:49:16;6.63;;;5.00;;
10090;SDS011;5084;51.386;6.778;2023-03-01T14:51:46;9.60;;;5.23;;
10090;SDS011;5084;51.386;6.778;2023-03-01T14:54:56;4.93;;;4.10;;
10090;SDS011;5084;51.386;6.778;2023-03-01T14:57:03;6.93;;;5.13;;
10090;SDS011;5084;51.386;6.778;2023-03-01T14:59:29;6.70;;;5.27;;
10090;SDS011;5084;51.386;6.778;2023-03-01T15:01:58;6.07;;;5.00;;
10090;SDS011;5084;51.386;6.778;2023-03-01T15:04:25;7.87;;;4.50;;
10090;SDS011;5084;51.386;6.778;2023-03-01T15:06:52;7.17;;;5.20;;
10090;SDS011;5084;51.386;6.778;2023-03-01T15:09:19;6.03;;;5.17;;
10090;SDS011;5084;51.386;6.778;2023-03-01T15:11:45;5.77;;;4.87;;
10090;SDS011;5084;51.386;6.778;2023-03-01T15:14:38;7.40;;;5.53;;
10090;SDS011;5084;51.386;6.778;2023-03-01T15:17:15;8.50;;;5.57;;
10090;SDS011;5084;51.386;6.778;2023-03-01T15:19:45;6.50;;;4.73;;
10090;SDS011;5084;51.386;6.778;2023-03-01T15:22:14;7.10;;;5.73;;
10090;SDS011;5084;51.386;6.778;2023-03-01T15:24:41;8.43;;;5.47;;
10090;SDS011;5084;51.386;6.778;2023-03-01T15:27:17;6.80;;;5.40;;
10090;SDS011;5084;51.386;6.778;2023-03-01T15:29:48;5.50;;;4.67;;
10090;SDS011;5084;51.386;6.778;2023-03-01T15:32:28;8.50;;;5.23;;
10090;SDS011;5084;51.386;6.778;2023-03-01T15:34:55;7.13;;;5.50;;
10090;SDS011;5084;51.386;6.778;2023-03-01T15:40:25;4.80;;;4.37;;
10090;SDS011;5084;51.386;6.778;2023-03-01T15:42:59;6.23;;;5.10;;
10090;SDS011;5084;51.386;6.778;2023-03-01T15:45:27;6.20;;;5.23;;
10090;SDS011;5084;51.386;6.778;2023-03-01T15:47:56;9.20;;;4.70;;
10090;SDS011;5084;51.386;6.778;2023-03-01T15:50:27;7.63;;;4.93;;
10090;SDS011;5084;51.386;6.778;2023-03-01T15:52:54;5.17;;;4.47;;
10090;SDS011;5084;51.386;6.778;2023-03-01T15:55:22;5.87;;;4.70;;
10090;SDS011;5084;51.386;6.778;2023-03-01T15:57:48;5.80;;;4.67;;
10090;SDS011;5084;51.386;6.778;2023-03-01T16:00:15;13.10;;;5.73;;
10090;SDS011;5084;51.386;6.778;2023-03-01T16:02:42;7.30;;;4.87;;
10090;SDS011;5084;51.386;6.778;2023-03-01T16:05:19;5.43;;;4.83;;
10090;SDS011;5084;51.386;6.778;2023-03-01T16:07:45;6.53;;;5.23;;
10090;SDS011;5084;51.386;6.778;2023-03-01T16:10:11;6.87;;;5.27;;
10090;SDS011;5084;51.386;6.778;2023-03-01T16:12:38;5.53;;;5.03;;
10090;SDS011;5084;51.386;6.778;2023-03-01T16:15:08;6.00;;;4.80;;
10090;SDS011;5084;51.386;6.778;2023-03-01T16:17:38;7.60;;;5.03;;
10090;SDS011;5084;51.386;6.778;2023-03-01T16:20:04;11.30;;;5.83;;
10090;SDS011;5084;51.386;6.778;2023-03-01T16:22:31;7.83;;;5.17;;
10090;SDS011;5084;51.386;6.778;2023-03-01T16:24:57;6.13;;;4.87;;
10090;SDS011;5084;51.386;6.778;2023-03-01T16:27:23;6.10;;;5.10;;
10090;SDS011;5084;51.386;6.778;2023-03-01T16:29:49;4.87;;;4.37;;
10090;SDS011;5084;51.386;6.778;2023-03-01T16:32:15;7.33;;;5.50;;
10090;SDS011;5084;51.386;6.778;2023-03-01T16:34:41;6.50;;;5.07;;
10090;SDS011;5084;51.386;6.778;2023-03-01T16:37:07;6.80;;;4.97;;